sensor_id;sensor_type;location;lat;lon;timestamp;P1;durP1;ratioP1;P2;durP2;ratioP2
13816;SDS011;6979;52.116;5.286;2024-02-26T00:00:50;2.97;;;2.83;;
13816;SDS011;6979;52.116;5.286;2024-02-26T00:03:17;3.50;;;3.17;;
13816;SDS011;6979;52.116;5.286;2024-02-26T00:05:44;3.27;;;3.07;;
13816;SDS011;6979;52.116;5.286;2024-02-26T00:08:12;3.60;;;3.40;;
13816;SDS011;6979;52.116;5.286;2024-02-26T00:10:39;3.07;;;2.87;;
13816;SDS011;6979;52.116;5.286;2024-02-26T00:13:06;3.67;;;3.47;;
13816;SDS011;6979;52.116;5.286;2024-02-26T00:15:33;3.23;;;3.03;;
13816;SDS011;6979;52.116;5.286;2024-02-26T00:18:00;3.50;;;3.20;;
13816;SDS011;6979;52.116;5.286;2024-02-26T00:20:30;3.47;;;3.27;;
13816;SDS011;6979;52.116;5.286;2024-02-26T00:22:56;3.60;;;3.30;;
13816;SDS011;6979;52.116;5.286;2024-02-26T00:25:25;4.00;;;3.70;;
13816;SDS011;6979;52.116;5.286;2024-02-26T00:27:51;3.70;;;3.50;;
13816;SDS011;6979;52.116;5.286;2024-02-26T00:30:21;3.30;;;3.10;;
13816;SDS011;6979;52.116;5.286;2024-02-26T00:32:48;3.70;;;3.40;;
13816;SDS011;6979;52.116;5.286;2024-02-26T00:35:15;3.90;;;3.60;;
13816;SDS011;6979;52.116;5.286;2024-02-26T00:37:45;4.13;;;3.83;;
13816;SDS011;6979;52.116;5.286;2024-02-26T00:40:12;5.00;;;4.47;;
13816;SDS011;6979;52.116;5.286;2024-02-26T00:42:40;4.40;;;4.10;;
13816;SDS011;6979;52.116;5.286;2024-02-26T00:45:10;3.60;;;3.30;;
13816;SDS011;6979;52.116;5.286;2024-02-26T00:47:37;3.43;;;3.13;;
13816;SDS011;6979;52.116;5.286;2024-02-26T00:50:06;3.70;;;3.40;;
13816;SDS011;6979;52.116;5.286;2024-02-26T00:52:34;3.97;;;3.77;;
13816;SDS011;6979;52.116;5.286;2024-02-26T00:55:01;4.67;;;4.37;;
13816;SDS011;6979;52.116;5.286;2024-02-26T00:57:29;3.87;;;3.67;;
13816;SDS011;6979;52.116;5.286;2024-02-26T00:59:57;4.60;;;4.10;;
13816;SDS011;6979;52.116;5.286;2024-02-26T01:02:24;4.57;;;4.13;;
13816;SDS011;6979;52.116;5.286;2024-02-26T01:04:51;4.13;;;3.83;;
13816;SDS011;6979;52.116;5.286;2024-02-26T01:07:20;4.40;;;4.10;;
13816;SDS011;6979;52.116;5.286;2024-02-26T01:09:48;4.90;;;4.47;;
13816;SDS011;6979;52.116;5.286;2024-02-26T01:12:18;5.30;;;4.90;;
13816;SDS011;6979;52.116;5.286;2024-02-26T01:14:45;4.73;;;4.43;;
13816;SDS011;6979;52.116;5.286;2024-02-26T01:17:19;4.50;;;4.20;;
13816;SDS011;6979;52.116;5.286;2024-02-26T01:19:46;4.93;;;4.57;;
13816;SDS011;6979;52.116;5.286;2024-02-26T01:22:13;4.53;;;4.23;;
13816;SDS011;6979;52.116;5.286;2024-02-26T01:24:42;4.80;;;4.50;;
13816;SDS011;6979;52.116;5.286;2024-02-26T01:27:09;5.03;;;4.70;;
13816;SDS011;6979;52.116;5.286;2024-02-26T01:29:36;4.47;;;4.17;;
13816;SDS011;6979;52.116;5.286;2024-02-26T01:32:03;4.63;;;4.30;;
13816;SDS011;6979;52.116;5.286;2024-02-26T01:34:32;4.63;;;4.33;;
13816;SDS011;6979;52.116;5.286;2024-02-26T01:36:59;4.90;;;4.60;;
13816;SDS011;6979;52.116;5.286;2024-02-26T01:39:26;5.53;;;5.07;;
13816;SDS011;6979;52.116;5.286;2024-02-26T01:41:54;5.23;;;4.83;;
13816;SDS011;6979;52.116;5.286;2024-02-26T01:44:21;5.10;;;4.70;;
13816;SDS011;6979;52.116;5.286;2024-02-26T01:46:49;4.27;;;4.00;;
13816;SDS011;6979;52.116;5.286;2024-02-26T01:49:16;5.07;;;4.77;;
13816;SDS011;6979;52.116;5.286;2024-02-26T01:51:46;4.63;;;4.33;;
13816;SDS011;6979;52.116;5.286;2024-02-26T01:54:13;4.57;;;4.30;;
13816;SDS011;6979;52.116;5.286;2024-02-26T01:56:40;5.07;;;4.57;;
13816;SDS011;6979;52.116;5.286;2024-02-26T01:59:07;5.03;;;4.73;;
13816;SDS011;6979;52.116;5.286;2024-02-26T02:01:35;6.73;;;5.03;;
13816;SDS011;6979;52.116;5.286;2024-02-26T02:04:02;5.40;;;5.00;;
13816;SDS011;6979;52.116;5.286;2024-02-26T02:06:30;5.00;;;4.70;;
13816;SDS011;6979;52.116;5.286;2024-02-26T02:08:58;4.63;;;4.23;;
13816;SDS011;6979;52.116;5.286;2024-02-26T02:11:31;5.47;;;5.07;;
13816;SDS011;6979;52.116;5.286;2024-02-26T02:13:58;5.13;;;4.63;;
13816;SDS011;6979;52.116;5.286;2024-02-26T02:16:25;5.03;;;4.73;;
13816;SDS011;6979;52.116;5.286;2024-02-26T02:18:52;5.50;;;5.10;;
13816;SDS011;6979;52.116;5.286;2024-02-26T02:21:20;5.37;;;4.97;;
13816;SDS011;6979;52.116;5.286;2024-02-26T02:23:47;4.63;;;4.23;;
13816;SDS011;6979;52.116;5.286;2024-02-26T02:26:14;5.33;;;4.93;;
13816;SDS011;6979;52.116;5.286;2024-02-26T02:28:42;5.40;;;5.00;;
13816;SDS011;6979;52.116;5.286;2024-02-26T02:31:09;6.20;;;5.70;;
13816;SDS011;6979;52.116;5.286;2024-02-26T02:33:36;4.83;;;4.53;;
13816;SDS011;6979;52.116;5.286;2024-02-26T02:36:04;5.67;;;5.27;;
13816;SDS011;6979;52.116;5.286;2024-02-26T02:38:36;4.77;;;4.47;;
13816;SDS011;6979;52.116;5.286;2024-02-26T02:41:03;5.27;;;4.97;;
13816;SDS011;6979;52.116;5.286;2024-02-26T02:43:30;5.20;;;4.70;;
13816;SDS011;6979;52.116;5.286;2024-02-26T02:46:00;5.27;;;4.90;;
13816;SDS011;6979;52.116;5.286;2024-02-26T02:48:29;4.77;;;4.47;;
13816;SDS011;6979;52.116;5.286;2024-02-26T02:50:56;5.23;;;4.73;;
13816;SDS011;6979;52.116;5.286;2024-02-26T02:53:23;5.60;;;5.20;;
13816;SDS011;6979;52.116;5.286;2024-02-26T02:55:51;5.13;;;4.73;;
13816;SDS011;6979;52.116;5.286;2024-02-26T02:58:18;5.43;;;5.03;;
13816;SDS011;6979;52.116;5.286;2024-02-26T03:00:45;5.40;;;4.93;;
13816;SDS011;6979;52.116;5.286;2024-02-26T03:03:12;5.07;;;4.67;;
13816;SDS011;6979;52.116;5.286;2024-02-26T03:05:38;4.97;;;4.67;;
13816;SDS011;6979;52.116;5.286;2024-02-26T03:08:05;6.67;;;6.17;;
13816;SDS011;6979;52.116;5.286;2024-02-26T03:10:32;5.83;;;5.30;;
13816;SDS011;6979;52.116;5.286;2024-02-26T03:13:01;5.67;;;5.17;;
13816;SDS011;6979;52.116;5.286;2024-02-26T03:15:27;5.27;;;4.77;;
13816;SDS011;6979;52.116;5.286;2024-02-26T03:17:57;5.03;;;4.73;;
13816;SDS011;6979;52.116;5.286;2024-02-26T03:20:27;5.47;;;5.07;;
13816;SDS011;6979;52.116;5.286;2024-02-26T03:22:53;5.77;;;5.27;;
13816;SDS011;6979;52.116;5.286;2024-02-26T03:25:19;5.87;;;5.37;;
13816;SDS011;6979;52.116;5.286;2024-02-26T03:27:46;6.13;;;5.70;;
13816;SDS011;6979;52.116;5.286;2024-02-26T03:30:15;6.03;;;5.63;;
13816;SDS011;6979;52.116;5.286;2024-02-26T03:32:45;5.70;;;5.20;;
13816;SDS011;6979;52.116;5.286;2024-02-26T03:35:12;6.57;;;5.97;;
13816;SDS011;6979;52.116;5.286;2024-02-26T03:37:42;5.87;;;5.37;;
13816;SDS011;6979;52.116;5.286;2024-02-26T03:40:09;5.83;;;5.37;;
13816;SDS011;6979;52.116;5.286;2024-02-26T03:42:38;5.50;;;5.07;;
13816;SDS011;6979;52.116;5.286;2024-02-26T03:45:05;6.40;;;5.27;;
13816;SDS011;6979;52.116;5.286;2024-02-26T03:47:34;6.63;;;6.03;;
13816;SDS011;6979;52.116;5.286;2024-02-26T03:50:00;6.23;;;5.73;;
13816;SDS011;6979;52.116;5.286;2024-02-26T03:52:29;6.00;;;5.50;;
13816;SDS011;6979;52.116;5.286;2024-02-26T03:54:55;6.93;;;6.33;;
13816;SDS011;6979;52.116;5.286;2024-02-26T03:57:22;7.27;;;6.67;;
13816;SDS011;6979;52.116;5.286;2024-02-26T03:59:49;6.57;;;6.07;;
13816;SDS011;6979;52.116;5.286;2024-02-26T04:02:16;6.57;;;6.07;;
13816;SDS011;6979;52.116;5.286;2024-02-26T04:04:46;6.90;;;6.40;;
13816;SDS011;6979;52.116;5.286;2024-02-26T04:07:12;6.63;;;6.13;;
13816;SDS011;6979;52.116;5.286;2024-02-26T04:09:39;7.27;;;6.57;;
13816;SDS011;6979;52.116;5.286;2024-02-26T04:12:06;6.83;;;6.23;;
13816;SDS011;6979;52.116;5.286;2024-02-26T04:14:33;7.10;;;6.40;;
13816;SDS011;6979;52.116;5.286;2024-02-26T04:17:01;6.40;;;5.90;;
13816;SDS011;6979;52.116;5.286;2024-02-26T04:19:31;6.13;;;5.63;;
13816;SDS011;6979;52.116;5.286;2024-02-26T04:22:00;6.77;;;6.17;;
13816;SDS011;6979;52.116;5.286;2024-02-26T04:24:27;7.53;;;6.80;;
13816;SDS011;6979;52.116;5.286;2024-02-26T04:26:57;6.33;;;5.83;;
13816;SDS011;6979;52.116;5.286;2024-02-26T04:29:27;6.40;;;5.90;;
13816;SDS011;6979;52.116;5.286;2024-02-26T04:31:53;6.97;;;6.47;;
13816;SDS011;6979;52.116;5.286;2024-02-26T04:34:20;6.33;;;5.83;;
13816;SDS011;6979;52.116;5.286;2024-02-26T04:36:47;6.40;;;5.80;;
13816;SDS011;6979;52.116;5.286;2024-02-26T04:39:15;6.93;;;6.23;;
13816;SDS011;6979;52.116;5.286;2024-02-26T04:41:41;7.07;;;6.50;;
13816;SDS011;6979;52.116;5.286;2024-02-26T04:44:10;7.20;;;6.60;;
13816;SDS011;6979;52.116;5.286;2024-02-26T04:46:37;7.33;;;6.63;;
13816;SDS011;6979;52.116;5.286;2024-02-26T04:49:04;6.77;;;6.17;;
13816;SDS011;6979;52.116;5.286;2024-02-26T04:51:31;7.73;;;7.00;;
13816;SDS011;6979;52.116;5.286;2024-02-26T04:53:58;7.27;;;6.67;;
13816;SDS011;6979;52.116;5.286;2024-02-26T04:56:26;7.77;;;7.10;;
13816;SDS011;6979;52.116;5.286;2024-02-26T04:58:53;7.20;;;6.60;;
13816;SDS011;6979;52.116;5.286;2024-02-26T05:01:20;7.70;;;7.00;;
13816;SDS011;6979;52.116;5.286;2024-02-26T05:03:47;7.87;;;7.27;;
13816;SDS011;6979;52.116;5.286;2024-02-26T05:06:14;8.23;;;7.53;;
13816;SDS011;6979;52.116;5.286;2024-02-26T05:08:44;8.20;;;7.53;;
13816;SDS011;6979;52.116;5.286;2024-02-26T05:11:13;6.53;;;6.03;;
13816;SDS011;6979;52.116;5.286;2024-02-26T05:13:42;6.60;;;6.00;;
13816;SDS011;6979;52.116;5.286;2024-02-26T05:16:10;7.73;;;7.03;;
13816;SDS011;6979;52.116;5.286;2024-02-26T05:18:37;7.57;;;6.90;;
13816;SDS011;6979;52.116;5.286;2024-02-26T05:21:04;8.00;;;7.30;;
13816;SDS011;6979;52.116;5.286;2024-02-26T05:23:31;7.73;;;7.13;;
13816;SDS011;6979;52.116;5.286;2024-02-26T05:25:57;7.63;;;6.93;;
13816;SDS011;6979;52.116;5.286;2024-02-26T05:28:24;7.57;;;6.97;;
13816;SDS011;6979;52.116;5.286;2024-02-26T05:30:52;8.13;;;7.33;;
13816;SDS011;6979;52.116;5.286;2024-02-26T05:33:19;8.50;;;7.70;;
13816;SDS011;6979;52.116;5.286;2024-02-26T05:35:49;8.23;;;7.50;;
13816;SDS011;6979;52.116;5.286;2024-02-26T05:38:18;8.67;;;7.83;;
13816;SDS011;6979;52.116;5.286;2024-02-26T05:40:45;8.90;;;8.20;;
13816;SDS011;6979;52.116;5.286;2024-02-26T05:43:12;9.40;;;8.50;;
13816;SDS011;6979;52.116;5.286;2024-02-26T05:45:40;8.07;;;7.37;;
13816;SDS011;6979;52.116;5.286;2024-02-26T05:48:08;8.53;;;7.83;;
13816;SDS011;6979;52.116;5.286;2024-02-26T05:50:38;9.17;;;8.37;;
13816;SDS011;6979;52.116;5.286;2024-02-26T05:53:05;8.97;;;8.17;;
13816;SDS011;6979;52.116;5.286;2024-02-26T05:55:32;9.47;;;8.57;;
13816;SDS011;6979;52.116;5.286;2024-02-26T05:57:59;8.77;;;7.87;;
13816;SDS011;6979;52.116;5.286;2024-02-26T06:00:26;8.43;;;7.63;;
13816;SDS011;6979;52.116;5.286;2024-02-26T06:02:52;8.90;;;8.20;;
13816;SDS011;6979;52.116;5.286;2024-02-26T06:05:21;9.67;;;8.77;;
13816;SDS011;6979;52.116;5.286;2024-02-26T06:07:47;9.03;;;8.07;;
13816;SDS011;6979;52.116;5.286;2024-02-26T06:10:14;10.00;;;9.10;;
13816;SDS011;6979;52.116;5.286;2024-02-26T06:12:41;8.30;;;7.60;;
13816;SDS011;6979;52.116;5.286;2024-02-26T06:15:08;8.97;;;8.17;;
13816;SDS011;6979;52.116;5.286;2024-02-26T06:17:36;9.03;;;8.23;;
13816;SDS011;6979;52.116;5.286;2024-02-26T06:20:03;8.97;;;8.17;;
13816;SDS011;6979;52.116;5.286;2024-02-26T06:22:33;9.10;;;8.27;;
13816;SDS011;6979;52.116;5.286;2024-02-26T06:24:59;9.80;;;8.90;;
13816;SDS011;6979;52.116;5.286;2024-02-26T06:27:26;9.17;;;8.30;;
13816;SDS011;6979;52.116;5.286;2024-02-26T06:29:53;8.97;;;8.07;;
13816;SDS011;6979;52.116;5.286;2024-02-26T06:32:20;10.07;;;9.10;;
13816;SDS011;6979;52.116;5.286;2024-02-26T06:34:49;9.20;;;8.40;;
13816;SDS011;6979;52.116;5.286;2024-02-26T06:37:16;10.57;;;9.47;;
13816;SDS011;6979;52.116;5.286;2024-02-26T06:39:44;10.83;;;9.73;;
13816;SDS011;6979;52.116;5.286;2024-02-26T06:42:11;10.93;;;9.90;;
13816;SDS011;6979;52.116;5.286;2024-02-26T06:44:40;9.70;;;8.80;;
13816;SDS011;6979;52.116;5.286;2024-02-26T06:47:06;9.70;;;8.80;;
13816;SDS011;6979;52.116;5.286;2024-02-26T06:49:33;12.33;;;10.47;;
13816;SDS011;6979;52.116;5.286;2024-02-26T06:52:00;12.43;;;11.23;;
13816;SDS011;6979;52.116;5.286;2024-02-26T06:54:27;11.67;;;10.57;;
13816;SDS011;6979;52.116;5.286;2024-02-26T06:56:55;11.47;;;10.37;;
13816;SDS011;6979;52.116;5.286;2024-02-26T06:59:22;12.13;;;10.93;;
13816;SDS011;6979;52.116;5.286;2024-02-26T07:01:49;12.73;;;11.43;;
13816;SDS011;6979;52.116;5.286;2024-02-26T07:04:17;13.03;;;11.63;;
13816;SDS011;6979;52.116;5.286;2024-02-26T07:06:47;14.33;;;12.47;;
13816;SDS011;6979;52.116;5.286;2024-02-26T07:09:16;17.73;;;13.33;;
13816;SDS011;6979;52.116;5.286;2024-02-26T07:11:43;16.13;;;13.73;;
13816;SDS011;6979;52.116;5.286;2024-02-26T07:14:12;16.93;;;14.00;;
13816;SDS011;6979;52.116;5.286;2024-02-26T07:16:39;16.53;;;14.73;;
13816;SDS011;6979;52.116;5.286;2024-02-26T07:19:06;18.77;;;16.80;;
13816;SDS011;6979;52.116;5.286;2024-02-26T07:21:35;18.00;;;15.20;;
13816;SDS011;6979;52.116;5.286;2024-02-26T07:24:02;18.70;;;16.70;;
13816;SDS011;6979;52.116;5.286;2024-02-26T07:26:29;20.47;;;16.77;;
13816;SDS011;6979;52.116;5.286;2024-02-26T07:28:57;19.07;;;17.10;;
13816;SDS011;6979;52.116;5.286;2024-02-26T07:31:25;18.63;;;16.33;;
13816;SDS011;6979;52.116;5.286;2024-02-26T07:33:53;18.20;;;16.17;;
13816;SDS011;6979;52.116;5.286;2024-02-26T07:36:20;17.00;;;15.20;;
13816;SDS011;6979;52.116;5.286;2024-02-26T07:38:46;18.27;;;16.27;;
13816;SDS011;6979;52.116;5.286;2024-02-26T07:41:13;18.20;;;15.63;;
13816;SDS011;6979;52.116;5.286;2024-02-26T07:43:43;18.40;;;16.50;;
13816;SDS011;6979;52.116;5.286;2024-02-26T07:46:11;20.00;;;16.83;;
13816;SDS011;6979;52.116;5.286;2024-02-26T07:48:39;19.53;;;17.40;;
13816;SDS011;6979;52.116;5.286;2024-02-26T07:51:06;17.97;;;16.07;;
13816;SDS011;6979;52.116;5.286;2024-02-26T07:53:33;19.20;;;16.27;;
13816;SDS011;6979;52.116;5.286;2024-02-26T07:56:00;18.20;;;16.03;;
13816;SDS011;6979;52.116;5.286;2024-02-26T07:58:31;18.63;;;16.70;;
13816;SDS011;6979;52.116;5.286;2024-02-26T08:00:58;16.73;;;15.03;;
13816;SDS011;6979;52.116;5.286;2024-02-26T08:03:25;17.10;;;15.30;;
13816;SDS011;6979;52.116;5.286;2024-02-26T08:05:53;18.03;;;16.17;;
13816;SDS011;6979;52.116;5.286;2024-02-26T08:08:21;17.67;;;15.87;;
13816;SDS011;6979;52.116;5.286;2024-02-26T08:10:48;17.87;;;16.07;;
13816;SDS011;6979;52.116;5.286;2024-02-26T08:13:15;15.10;;;13.60;;
13816;SDS011;6979;52.116;5.286;2024-02-26T08:15:41;14.37;;;12.97;;
13816;SDS011;6979;52.116;5.286;2024-02-26T08:18:08;14.97;;;13.50;;
13816;SDS011;6979;52.116;5.286;2024-02-26T08:20:35;13.50;;;12.20;;
13816;SDS011;6979;52.116;5.286;2024-02-26T08:23:04;13.83;;;12.47;;
13816;SDS011;6979;52.116;5.286;2024-02-26T08:25:31;12.40;;;11.30;;
13816;SDS011;6979;52.116;5.286;2024-02-26T08:27:58;11.43;;;10.37;;
13816;SDS011;6979;52.116;5.286;2024-02-26T08:30:26;13.40;;;12.13;;
13816;SDS011;6979;52.116;5.286;2024-02-26T08:32:54;10.30;;;9.40;;
13816;SDS011;6979;52.116;5.286;2024-02-26T08:35:21;10.57;;;9.67;;
13816;SDS011;6979;52.116;5.286;2024-02-26T08:37:48;10.73;;;9.63;;
13816;SDS011;6979;52.116;5.286;2024-02-26T08:40:19;10.67;;;9.63;;
13816;SDS011;6979;52.116;5.286;2024-02-26T08:42:46;10.50;;;9.60;;
13816;SDS011;6979;52.116;5.286;2024-02-26T08:45:13;9.80;;;9.00;;
13816;SDS011;6979;52.116;5.286;2024-02-26T08:47:40;10.07;;;9.13;;
13816;SDS011;6979;52.116;5.286;2024-02-26T08:50:08;9.73;;;8.83;;
13816;SDS011;6979;52.116;5.286;2024-02-26T08:52:37;10.33;;;9.13;;
13816;SDS011;6979;52.116;5.286;2024-02-26T08:55:04;9.50;;;8.60;;
13816;SDS011;6979;52.116;5.286;2024-02-26T08:57:33;9.37;;;8.57;;
13816;SDS011;6979;52.116;5.286;2024-02-26T08:59:59;8.63;;;7.77;;
13816;SDS011;6979;52.116;5.286;2024-02-26T09:02:26;9.33;;;8.43;;
13816;SDS011;6979;52.116;5.286;2024-02-26T09:04:53;9.33;;;8.47;;
13816;SDS011;6979;52.116;5.286;2024-02-26T09:07:20;9.07;;;8.17;;
13816;SDS011;6979;52.116;5.286;2024-02-26T09:09:50;9.30;;;8.40;;
13816;SDS011;6979;52.116;5.286;2024-02-26T09:12:17;9.37;;;8.57;;
13816;SDS011;6979;52.116;5.286;2024-02-26T09:14:46;8.40;;;7.70;;
13816;SDS011;6979;52.116;5.286;2024-02-26T09:17:12;8.80;;;8.10;;
13816;SDS011;6979;52.116;5.286;2024-02-26T09:19:39;7.60;;;7.00;;
13816;SDS011;6979;52.116;5.286;2024-02-26T09:22:07;7.47;;;6.87;;
13816;SDS011;6979;52.116;5.286;2024-02-26T09:24:36;7.80;;;7.00;;
13816;SDS011;6979;52.116;5.286;2024-02-26T09:27:04;7.17;;;6.57;;
13816;SDS011;6979;52.116;5.286;2024-02-26T09:29:31;7.97;;;7.27;;
13816;SDS011;6979;52.116;5.286;2024-02-26T09:32:00;7.00;;;6.40;;
13816;SDS011;6979;52.116;5.286;2024-02-26T09:34:30;7.23;;;6.53;;
13816;SDS011;6979;52.116;5.286;2024-02-26T09:37:01;7.87;;;7.10;;
13816;SDS011;6979;52.116;5.286;2024-02-26T09:39:28;7.20;;;6.50;;
13816;SDS011;6979;52.116;5.286;2024-02-26T09:41:57;7.97;;;6.33;;
13816;SDS011;6979;52.116;5.286;2024-02-26T09:44:25;6.13;;;5.57;;
13816;SDS011;6979;52.116;5.286;2024-02-26T09:46:55;6.90;;;6.30;;
13816;SDS011;6979;52.116;5.286;2024-02-26T09:49:25;6.50;;;5.90;;
13816;SDS011;6979;52.116;5.286;2024-02-26T09:51:52;6.70;;;6.10;;
13816;SDS011;6979;52.116;5.286;2024-02-26T09:54:23;6.30;;;5.70;;
13816;SDS011;6979;52.116;5.286;2024-02-26T09:56:51;6.43;;;5.77;;
13816;SDS011;6979;52.116;5.286;2024-02-26T09:59:20;6.83;;;6.23;;
13816;SDS011;6979;52.116;5.286;2024-02-26T10:01:48;8.10;;;7.40;;
13816;SDS011;6979;52.116;5.286;2024-02-26T10:04:16;5.93;;;5.50;;
13816;SDS011;6979;52.116;5.286;2024-02-26T10:06:46;7.27;;;6.67;;
13816;SDS011;6979;52.116;5.286;2024-02-26T10:09:13;7.00;;;6.30;;
13816;SDS011;6979;52.116;5.286;2024-02-26T10:11:41;6.73;;;6.13;;
13816;SDS011;6979;52.116;5.286;2024-02-26T10:14:09;7.03;;;6.23;;
13816;SDS011;6979;52.116;5.286;2024-02-26T10:16:37;7.00;;;6.40;;
13816;SDS011;6979;52.116;5.286;2024-02-26T10:19:04;6.80;;;6.20;;
13816;SDS011;6979;52.116;5.286;2024-02-26T10:21:31;6.63;;;6.03;;
13816;SDS011;6979;52.116;5.286;2024-02-26T10:23:59;7.17;;;6.57;;
13816;SDS011;6979;52.116;5.286;2024-02-26T10:26:26;6.97;;;6.20;;
13816;SDS011;6979;52.116;5.286;2024-02-26T10:28:53;7.00;;;6.40;;
13816;SDS011;6979;52.116;5.286;2024-02-26T10:31:25;6.13;;;5.63;;
13816;SDS011;6979;52.116;5.286;2024-02-26T10:33:55;7.00;;;6.40;;
13816;SDS011;6979;52.116;5.286;2024-02-26T10:36:25;6.43;;;5.83;;
13816;SDS011;6979;52.116;5.286;2024-02-26T10:38:52;6.23;;;5.73;;
13816;SDS011;6979;52.116;5.286;2024-02-26T10:41:22;6.07;;;5.57;;
13816;SDS011;6979;52.116;5.286;2024-02-26T10:43:52;6.30;;;5.70;;
13816;SDS011;6979;52.116;5.286;2024-02-26T10:46:19;7.07;;;6.30;;
13816;SDS011;6979;52.116;5.286;2024-02-26T10:48:49;6.70;;;6.10;;
13816;SDS011;6979;52.116;5.286;2024-02-26T10:51:17;6.17;;;5.67;;
13816;SDS011;6979;52.116;5.286;2024-02-26T10:53:46;7.00;;;6.30;;
13816;SDS011;6979;52.116;5.286;2024-02-26T10:56:18;6.13;;;5.57;;
13816;SDS011;6979;52.116;5.286;2024-02-26T10:58:49;6.40;;;5.80;;
13816;SDS011;6979;52.116;5.286;2024-02-26T11:01:16;6.80;;;6.20;;
13816;SDS011;6979;52.116;5.286;2024-02-26T11:03:44;5.90;;;5.40;;
13816;SDS011;6979;52.116;5.286;2024-02-26T11:06:14;6.10;;;5.60;;
13816;SDS011;6979;52.116;5.286;2024-02-26T11:08:41;6.27;;;5.77;;
13816;SDS011;6979;52.116;5.286;2024-02-26T11:11:09;7.30;;;6.70;;
13816;SDS011;6979;52.116;5.286;2024-02-26T11:13:40;7.23;;;6.63;;
13816;SDS011;6979;52.116;5.286;2024-02-26T11:16:11;6.93;;;6.33;;
13816;SDS011;6979;52.116;5.286;2024-02-26T11:18:39;6.77;;;6.13;;
13816;SDS011;6979;52.116;5.286;2024-02-26T11:21:08;7.00;;;6.30;;
13816;SDS011;6979;52.116;5.286;2024-02-26T11:23:42;5.67;;;5.17;;
13816;SDS011;6979;52.116;5.286;2024-02-26T11:26:10;6.70;;;6.20;;
13816;SDS011;6979;52.116;5.286;2024-02-26T11:28:39;6.70;;;6.10;;
13816;SDS011;6979;52.116;5.286;2024-02-26T11:31:11;6.07;;;4.73;;
13816;SDS011;6979;52.116;5.286;2024-02-26T11:33:52;6.53;;;6.03;;
13816;SDS011;6979;52.116;5.286;2024-02-26T11:36:20;6.87;;;6.17;;
13816;SDS011;6979;52.116;5.286;2024-02-26T11:38:46;6.43;;;5.93;;
13816;SDS011;6979;52.116;5.286;2024-02-26T11:41:16;6.47;;;5.97;;
13816;SDS011;6979;52.116;5.286;2024-02-26T11:43:50;6.70;;;6.10;;
13816;SDS011;6979;52.116;5.286;2024-02-26T11:46:29;7.13;;;6.13;;
13816;SDS011;6979;52.116;5.286;2024-02-26T11:48:58;6.63;;;6.03;;
13816;SDS011;6979;52.116;5.286;2024-02-26T11:51:26;6.07;;;5.50;;
13816;SDS011;6979;52.116;5.286;2024-02-26T11:53:54;5.77;;;5.27;;
13816;SDS011;6979;52.116;5.286;2024-02-26T11:56:24;6.50;;;6.00;;
13816;SDS011;6979;52.116;5.286;2024-02-26T11:59:00;6.87;;;6.27;;
13816;SDS011;6979;52.116;5.286;2024-02-26T12:01:39;7.60;;;6.80;;
13816;SDS011;6979;52.116;5.286;2024-02-26T12:04:07;6.97;;;6.37;;
13816;SDS011;6979;52.116;5.286;2024-02-26T12:06:43;6.63;;;6.03;;
13816;SDS011;6979;52.116;5.286;2024-02-26T12:09:12;6.27;;;5.77;;
13816;SDS011;6979;52.116;5.286;2024-02-26T12:11:39;6.73;;;6.13;;
13816;SDS011;6979;52.116;5.286;2024-02-26T12:14:09;6.70;;;6.10;;
13816;SDS011;6979;52.116;5.286;2024-02-26T12:16:37;5.90;;;5.40;;
13816;SDS011;6979;52.116;5.286;2024-02-26T12:19:08;6.30;;;5.80;;
13816;SDS011;6979;52.116;5.286;2024-02-26T12:21:36;6.40;;;5.90;;
13816;SDS011;6979;52.116;5.286;2024-02-26T12:24:07;5.77;;;5.27;;
13816;SDS011;6979;52.116;5.286;2024-02-26T12:26:38;6.50;;;6.00;;
13816;SDS011;6979;52.116;5.286;2024-02-26T12:29:05;6.10;;;5.60;;
13816;SDS011;6979;52.116;5.286;2024-02-26T12:31:32;6.33;;;5.73;;
13816;SDS011;6979;52.116;5.286;2024-02-26T12:34:03;6.33;;;5.73;;
13816;SDS011;6979;52.116;5.286;2024-02-26T12:36:31;6.77;;;6.27;;
13816;SDS011;6979;52.116;5.286;2024-02-26T12:38:58;6.30;;;5.80;;
13816;SDS011;6979;52.116;5.286;2024-02-26T12:41:25;5.67;;;5.27;;
13816;SDS011;6979;52.116;5.286;2024-02-26T12:43:53;6.87;;;6.30;;
13816;SDS011;6979;52.116;5.286;2024-02-26T12:46:21;6.47;;;5.97;;
13816;SDS011;6979;52.116;5.286;2024-02-26T12:48:48;6.10;;;5.60;;
13816;SDS011;6979;52.116;5.286;2024-02-26T12:51:16;5.83;;;5.37;;
13816;SDS011;6979;52.116;5.286;2024-02-26T12:53:44;6.27;;;5.77;;
13816;SDS011;6979;52.116;5.286;2024-02-26T12:56:12;6.13;;;5.63;;
13816;SDS011;6979;52.116;5.286;2024-02-26T12:58:39;6.03;;;5.53;;
13816;SDS011;6979;52.116;5.286;2024-02-26T13:01:06;5.93;;;5.33;;
13816;SDS011;6979;52.116;5.286;2024-02-26T13:03:39;6.63;;;6.03;;
13816;SDS011;6979;52.116;5.286;2024-02-26T13:06:09;5.93;;;5.40;;
13816;SDS011;6979;52.116;5.286;2024-02-26T13:08:40;5.97;;;5.43;;
13816;SDS011;6979;52.116;5.286;2024-02-26T13:11:08;5.93;;;5.43;;
13816;SDS011;6979;52.116;5.286;2024-02-26T13:13:36;6.00;;;5.50;;
13816;SDS011;6979;52.116;5.286;2024-02-26T13:16:03;6.40;;;5.90;;
13816;SDS011;6979;52.116;5.286;2024-02-26T13:18:31;6.37;;;5.83;;
13816;SDS011;6979;52.116;5.286;2024-02-26T13:21:08;5.73;;;5.23;;
13816;SDS011;6979;52.116;5.286;2024-02-26T13:23:36;6.53;;;5.90;;
13816;SDS011;6979;52.116;5.286;2024-02-26T13:26:06;7.10;;;6.50;;
13816;SDS011;6979;52.116;5.286;2024-02-26T13:28:37;6.30;;;5.80;;
13816;SDS011;6979;52.116;5.286;2024-02-26T13:31:04;6.20;;;5.70;;
13816;SDS011;6979;52.116;5.286;2024-02-26T13:33:34;6.00;;;5.50;;
13816;SDS011;6979;52.116;5.286;2024-02-26T13:36:02;5.73;;;5.23;;
13816;SDS011;6979;52.116;5.286;2024-02-26T13:38:30;5.73;;;5.23;;
13816;SDS011;6979;52.116;5.286;2024-02-26T13:40:59;5.77;;;5.20;;
13816;SDS011;6979;52.116;5.286;2024-02-26T13:43:27;4.80;;;4.40;;
13816;SDS011;6979;52.116;5.286;2024-02-26T13:45:54;5.00;;;4.60;;
13816;SDS011;6979;52.116;5.286;2024-02-26T13:48:21;4.80;;;4.40;;
13816;SDS011;6979;52.116;5.286;2024-02-26T13:50:50;5.73;;;5.23;;
13816;SDS011;6979;52.116;5.286;2024-02-26T13:53:16;5.27;;;4.87;;
13816;SDS011;6979;52.116;5.286;2024-02-26T13:55:44;5.23;;;4.83;;
13816;SDS011;6979;52.116;5.286;2024-02-26T13:58:12;4.83;;;4.43;;
13816;SDS011;6979;52.116;5.286;2024-02-26T14:00:43;4.93;;;4.53;;
13816;SDS011;6979;52.116;5.286;2024-02-26T14:03:10;5.07;;;4.57;;
13816;SDS011;6979;52.116;5.286;2024-02-26T14:05:37;4.47;;;4.17;;
13816;SDS011;6979;52.116;5.286;2024-02-26T14:08:05;4.50;;;4.10;;
13816;SDS011;6979;52.116;5.286;2024-02-26T14:10:42;5.00;;;4.60;;
13816;SDS011;6979;52.116;5.286;2024-02-26T14:13:09;4.97;;;4.57;;
13816;SDS011;6979;52.116;5.286;2024-02-26T14:15:36;4.90;;;4.50;;
13816;SDS011;6979;52.116;5.286;2024-02-26T14:18:05;4.87;;;4.47;;
13816;SDS011;6979;52.116;5.286;2024-02-26T14:20:33;4.40;;;4.00;;
13816;SDS011;6979;52.116;5.286;2024-02-26T14:23:04;4.47;;;4.13;;
13816;SDS011;6979;52.116;5.286;2024-02-26T14:25:33;4.37;;;3.97;;
13816;SDS011;6979;52.116;5.286;2024-02-26T14:28:00;4.23;;;3.93;;
13816;SDS011;6979;52.116;5.286;2024-02-26T14:30:26;4.73;;;4.43;;
13816;SDS011;6979;52.116;5.286;2024-02-26T14:32:53;4.43;;;4.03;;
13816;SDS011;6979;52.116;5.286;2024-02-26T14:35:23;7.23;;;4.33;;
13816;SDS011;6979;52.116;5.286;2024-02-26T14:37:50;4.57;;;4.27;;
13816;SDS011;6979;52.116;5.286;2024-02-26T14:40:17;4.23;;;3.93;;
13816;SDS011;6979;52.116;5.286;2024-02-26T14:42:47;4.47;;;4.07;;
13816;SDS011;6979;52.116;5.286;2024-02-26T14:45:14;4.73;;;4.40;;
13816;SDS011;6979;52.116;5.286;2024-02-26T14:47:41;3.90;;;3.60;;
13816;SDS011;6979;52.116;5.286;2024-02-26T14:50:08;5.23;;;4.27;;
13816;SDS011;6979;52.116;5.286;2024-02-26T14:52:37;4.23;;;3.93;;
13816;SDS011;6979;52.116;5.286;2024-02-26T14:55:04;4.17;;;3.87;;
13816;SDS011;6979;52.116;5.286;2024-02-26T14:57:32;3.80;;;3.60;;
13816;SDS011;6979;52.116;5.286;2024-02-26T14:59:59;3.97;;;3.67;;
13816;SDS011;6979;52.116;5.286;2024-02-26T15:02:26;3.93;;;3.63;;